sensor_id;sensor_type;location;lat;lon;timestamp;P1;durP1;ratioP1;P2;durP2;ratioP2
37459;SDS011;23318;50.966;5.284;2024-01-30T00:01:43;10.73;;;5.07;;
37459;SDS011;23318;50.966;5.284;2024-01-30T00:04:08;11.15;;;6.30;;
37459;SDS011;23318;50.966;5.284;2024-01-30T00:06:34;11.10;;;5.28;;
37459;SDS011;23318;50.966;5.284;2024-01-30T00:09:00;10.85;;;5.55;;
37459;SDS011;23318;50.966;5.284;2024-01-30T00:11:25;11.57;;;5.32;;
37459;SDS011;23318;50.966;5.284;2024-01-30T00:13:52;9.77;;;5.88;;
37459;SDS011;23318;50.966;5.284;2024-01-30T00:16:21;10.48;;;5.32;;
37459;SDS011;23318;50.966;5.284;2024-01-30T00:18:53;9.57;;;6.10;;
37459;SDS011;23318;50.966;5.284;2024-01-30T00:21:20;10.77;;;5.03;;
37459;SDS011;23318;50.966;5.284;2024-01-30T00:23:46;10.32;;;5.38;;
37459;SDS011;23318;50.966;5.284;2024-01-30T00:26:12;10.70;;;5.40;;
37459;SDS011;23318;50.966;5.284;2024-01-30T00:28:39;11.27;;;5.45;;
37459;SDS011;23318;50.966;5.284;2024-01-30T00:31:05;10.70;;;6.07;;
37459;SDS011;23318;50.966;5.284;2024-01-30T00:33:31;10.48;;;5.63;;
37459;SDS011;23318;50.966;5.284;2024-01-30T00:35:57;11.18;;;5.18;;
37459;SDS011;23318;50.966;5.284;2024-01-30T00:38:23;11.80;;;5.63;;
37459;SDS011;23318;50.966;5.284;2024-01-30T00:40:48;12.68;;;5.63;;
37459;SDS011;23318;50.966;5.284;2024-01-30T00:43:15;8.68;;;5.32;;
37459;SDS011;23318;50.966;5.284;2024-01-30T00:45:41;9.23;;;5.32;;
37459;SDS011;23318;50.966;5.284;2024-01-30T00:48:10;12.13;;;5.88;;
37459;SDS011;23318;50.966;5.284;2024-01-30T00:50:36;11.05;;;5.38;;
37459;SDS011;23318;50.966;5.284;2024-01-30T00:53:01;8.70;;;5.25;;
37459;SDS011;23318;50.966;5.284;2024-01-30T00:55:27;10.77;;;5.18;;
37459;SDS011;23318;50.966;5.284;2024-01-30T00:57:53;10.43;;;4.78;;
37459;SDS011;23318;50.966;5.284;2024-01-30T01:00:18;9.48;;;4.80;;
37459;SDS011;23318;50.966;5.284;2024-01-30T01:02:46;10.30;;;4.82;;
37459;SDS011;23318;50.966;5.284;2024-01-30T01:05:11;12.25;;;5.18;;
37459;SDS011;23318;50.966;5.284;2024-01-30T01:07:37;10.52;;;5.20;;
37459;SDS011;23318;50.966;5.284;2024-01-30T01:10:03;10.15;;;4.93;;
37459;SDS011;23318;50.966;5.284;2024-01-30T01:12:29;10.13;;;5.18;;
37459;SDS011;23318;50.966;5.284;2024-01-30T01:14:55;9.18;;;5.80;;
37459;SDS011;23318;50.966;5.284;2024-01-30T01:17:20;9.23;;;5.35;;
37459;SDS011;23318;50.966;5.284;2024-01-30T01:19:46;9.18;;;5.22;;
37459;SDS011;23318;50.966;5.284;2024-01-30T01:22:12;7.88;;;4.50;;
37459;SDS011;23318;50.966;5.284;2024-01-30T01:24:37;8.82;;;5.15;;
37459;SDS011;23318;50.966;5.284;2024-01-30T01:27:04;8.80;;;5.30;;
37459;SDS011;23318;50.966;5.284;2024-01-30T01:29:31;10.35;;;5.10;;
37459;SDS011;23318;50.966;5.284;2024-01-30T01:31:57;10.10;;;5.55;;
37459;SDS011;23318;50.966;5.284;2024-01-30T01:34:23;9.00;;;4.80;;
37459;SDS011;23318;50.966;5.284;2024-01-30T01:36:49;9.55;;;5.28;;
37459;SDS011;23318;50.966;5.284;2024-01-30T01:39:15;9.10;;;5.72;;
37459;SDS011;23318;50.966;5.284;2024-01-30T01:41:41;11.23;;;5.22;;
37459;SDS011;23318;50.966;5.284;2024-01-30T01:44:07;8.60;;;5.15;;
37459;SDS011;23318;50.966;5.284;2024-01-30T01:46:33;9.05;;;4.78;;
37459;SDS011;23318;50.966;5.284;2024-01-30T01:49:00;10.63;;;5.28;;
37459;SDS011;23318;50.966;5.284;2024-01-30T01:51:30;9.38;;;5.15;;
37459;SDS011;23318;50.966;5.284;2024-01-30T01:53:58;9.70;;;4.70;;
37459;SDS011;23318;50.966;5.284;2024-01-30T01:56:27;9.65;;;4.72;;
37459;SDS011;23318;50.966;5.284;2024-01-30T01:58:55;8.93;;;5.43;;
37459;SDS011;23318;50.966;5.284;2024-01-30T02:01:24;8.32;;;4.82;;
37459;SDS011;23318;50.966;5.284;2024-01-30T02:03:51;10.45;;;4.88;;
37459;SDS011;23318;50.966;5.284;2024-01-30T02:06:16;9.27;;;4.85;;
37459;SDS011;23318;50.966;5.284;2024-01-30T02:08:42;9.52;;;4.30;;
37459;SDS011;23318;50.966;5.284;2024-01-30T02:11:08;8.90;;;4.93;;
37459;SDS011;23318;50.966;5.284;2024-01-30T02:13:35;9.00;;;4.28;;
37459;SDS011;23318;50.966;5.284;2024-01-30T02:16:01;10.45;;;4.68;;
37459;SDS011;23318;50.966;5.284;2024-01-30T02:18:26;9.57;;;4.68;;
37459;SDS011;23318;50.966;5.284;2024-01-30T02:20:53;10.75;;;4.75;;
37459;SDS011;23318;50.966;5.284;2024-01-30T02:23:20;9.15;;;4.93;;
37459;SDS011;23318;50.966;5.284;2024-01-30T02:25:46;8.20;;;4.80;;
37459;SDS011;23318;50.966;5.284;2024-01-30T02:28:15;7.63;;;4.28;;
37459;SDS011;23318;50.966;5.284;2024-01-30T02:30:44;6.35;;;4.30;;
37459;SDS011;23318;50.966;5.284;2024-01-30T02:33:10;8.38;;;4.93;;
37459;SDS011;23318;50.966;5.284;2024-01-30T02:35:36;10.02;;;4.75;;
37459;SDS011;23318;50.966;5.284;2024-01-30T02:38:02;10.95;;;5.18;;
37459;SDS011;23318;50.966;5.284;2024-01-30T02:40:28;9.63;;;4.95;;
37459;SDS011;23318;50.966;5.284;2024-01-30T02:42:54;8.80;;;4.78;;
37459;SDS011;23318;50.966;5.284;2024-01-30T02:45:20;13.95;;;5.03;;
37459;SDS011;23318;50.966;5.284;2024-01-30T02:47:45;7.20;;;4.30;;
37459;SDS011;23318;50.966;5.284;2024-01-30T02:50:11;7.82;;;4.72;;
37459;SDS011;23318;50.966;5.284;2024-01-30T02:52:37;10.65;;;4.55;;
37459;SDS011;23318;50.966;5.284;2024-01-30T02:55:02;9.32;;;4.38;;
37459;SDS011;23318;50.966;5.284;2024-01-30T02:57:28;7.15;;;4.78;;
37459;SDS011;23318;50.966;5.284;2024-01-30T02:59:54;9.38;;;4.80;;
37459;SDS011;23318;50.966;5.284;2024-01-30T03:02:20;12.52;;;4.65;;
37459;SDS011;23318;50.966;5.284;2024-01-30T03:04:46;10.00;;;5.30;;
37459;SDS011;23318;50.966;5.284;2024-01-30T03:07:12;6.65;;;4.40;;
37459;SDS011;23318;50.966;5.284;2024-01-30T03:09:38;7.22;;;4.75;;
37459;SDS011;23318;50.966;5.284;2024-01-30T03:12:06;15.18;;;5.15;;
37459;SDS011;23318;50.966;5.284;2024-01-30T03:14:31;9.55;;;4.82;;
37459;SDS011;23318;50.966;5.284;2024-01-30T03:16:57;9.93;;;5.05;;
37459;SDS011;23318;50.966;5.284;2024-01-30T03:19:23;6.45;;;3.92;;
37459;SDS011;23318;50.966;5.284;2024-01-30T03:21:49;7.38;;;4.10;;
37459;SDS011;23318;50.966;5.284;2024-01-30T03:24:15;8.35;;;3.97;;
37459;SDS011;23318;50.966;5.284;2024-01-30T03:26:41;10.45;;;4.38;;
37459;SDS011;23318;50.966;5.284;2024-01-30T03:29:06;6.15;;;3.30;;
37459;SDS011;23318;50.966;5.284;2024-01-30T03:31:32;6.47;;;4.10;;
37459;SDS011;23318;50.966;5.284;2024-01-30T03:33:58;6.75;;;4.22;;
37459;SDS011;23318;50.966;5.284;2024-01-30T03:36:24;6.38;;;3.83;;
37459;SDS011;23318;50.966;5.284;2024-01-30T03:38:49;7.88;;;4.75;;
37459;SDS011;23318;50.966;5.284;2024-01-30T03:41:15;6.90;;;4.15;;
37459;SDS011;23318;50.966;5.284;2024-01-30T03:43:41;9.77;;;4.88;;
37459;SDS011;23318;50.966;5.284;2024-01-30T03:46:06;8.95;;;4.20;;
37459;SDS011;23318;50.966;5.284;2024-01-30T03:48:32;10.13;;;4.50;;
37459;SDS011;23318;50.966;5.284;2024-01-30T03:50:57;10.23;;;4.70;;
37459;SDS011;23318;50.966;5.284;2024-01-30T03:53:23;9.98;;;4.25;;
37459;SDS011;23318;50.966;5.284;2024-01-30T03:55:49;6.68;;;3.97;;
37459;SDS011;23318;50.966;5.284;2024-01-30T03:58:15;9.20;;;4.40;;
37459;SDS011;23318;50.966;5.284;2024-01-30T04:00:40;9.30;;;4.80;;
37459;SDS011;23318;50.966;5.284;2024-01-30T04:03:06;10.35;;;4.80;;
37459;SDS011;23318;50.966;5.284;2024-01-30T04:05:32;6.72;;;4.13;;
37459;SDS011;23318;50.966;5.284;2024-01-30T04:07:58;8.95;;;4.50;;
37459;SDS011;23318;50.966;5.284;2024-01-30T04:10:24;6.68;;;3.70;;
37459;SDS011;23318;50.966;5.284;2024-01-30T04:12:52;6.47;;;4.07;;
37459;SDS011;23318;50.966;5.284;2024-01-30T04:15:19;7.60;;;3.92;;
37459;SDS011;23318;50.966;5.284;2024-01-30T04:17:44;8.48;;;4.22;;
37459;SDS011;23318;50.966;5.284;2024-01-30T04:20:14;6.63;;;4.15;;
37459;SDS011;23318;50.966;5.284;2024-01-30T04:22:41;8.38;;;4.43;;
37459;SDS011;23318;50.966;5.284;2024-01-30T04:25:13;5.45;;;3.78;;
37459;SDS011;23318;50.966;5.284;2024-01-30T04:27:39;7.22;;;4.10;;
37459;SDS011;23318;50.966;5.284;2024-01-30T04:30:05;9.65;;;5.25;;
37459;SDS011;23318;50.966;5.284;2024-01-30T04:32:31;10.63;;;3.80;;
37459;SDS011;23318;50.966;5.284;2024-01-30T04:34:57;7.07;;;3.72;;
37459;SDS011;23318;50.966;5.284;2024-01-30T04:37:23;7.35;;;3.65;;
37459;SDS011;23318;50.966;5.284;2024-01-30T04:39:50;9.23;;;4.32;;
37459;SDS011;23318;50.966;5.284;2024-01-30T04:42:16;6.07;;;3.92;;
37459;SDS011;23318;50.966;5.284;2024-01-30T04:44:42;7.70;;;3.83;;
37459;SDS011;23318;50.966;5.284;2024-01-30T04:47:08;6.53;;;4.10;;
37459;SDS011;23318;50.966;5.284;2024-01-30T04:49:36;8.75;;;4.03;;
37459;SDS011;23318;50.966;5.284;2024-01-30T04:52:01;7.40;;;4.30;;
37459;SDS011;23318;50.966;5.284;2024-01-30T04:54:27;7.60;;;4.20;;
37459;SDS011;23318;50.966;5.284;2024-01-30T04:56:53;9.57;;;3.80;;
37459;SDS011;23318;50.966;5.284;2024-01-30T04:59:19;6.82;;;4.13;;
37459;SDS011;23318;50.966;5.284;2024-01-30T05:01:44;8.55;;;3.83;;
37459;SDS011;23318;50.966;5.284;2024-01-30T05:04:10;11.10;;;4.00;;
37459;SDS011;23318;50.966;5.284;2024-01-30T05:06:36;7.80;;;3.58;;
37459;SDS011;23318;50.966;5.284;2024-01-30T05:09:02;6.50;;;3.97;;
37459;SDS011;23318;50.966;5.284;2024-01-30T05:11:31;8.50;;;4.03;;
37459;SDS011;23318;50.966;5.284;2024-01-30T05:14:01;7.38;;;4.45;;
37459;SDS011;23318;50.966;5.284;2024-01-30T05:16:27;6.10;;;4.13;;
37459;SDS011;23318;50.966;5.284;2024-01-30T05:18:52;7.95;;;4.47;;
37459;SDS011;23318;50.966;5.284;2024-01-30T05:21:18;5.80;;;3.75;;
37459;SDS011;23318;50.966;5.284;2024-01-30T05:23:44;8.82;;;4.75;;
37459;SDS011;23318;50.966;5.284;2024-01-30T05:26:09;10.85;;;4.57;;
37459;SDS011;23318;50.966;5.284;2024-01-30T05:28:35;6.35;;;4.18;;
37459;SDS011;23318;50.966;5.284;2024-01-30T05:31:01;8.98;;;4.35;;
37459;SDS011;23318;50.966;5.284;2024-01-30T05:33:27;7.65;;;4.63;;
37459;SDS011;23318;50.966;5.284;2024-01-30T05:35:53;8.93;;;4.57;;
37459;SDS011;23318;50.966;5.284;2024-01-30T05:38:19;7.63;;;4.30;;
37459;SDS011;23318;50.966;5.284;2024-01-30T05:40:45;8.13;;;3.92;;
37459;SDS011;23318;50.966;5.284;2024-01-30T05:43:11;5.28;;;3.63;;
37459;SDS011;23318;50.966;5.284;2024-01-30T05:45:37;8.20;;;4.18;;
37459;SDS011;23318;50.966;5.284;2024-01-30T05:48:03;6.38;;;3.22;;
37459;SDS011;23318;50.966;5.284;2024-01-30T05:50:29;8.20;;;4.05;;
37459;SDS011;23318;50.966;5.284;2024-01-30T05:52:55;7.28;;;4.25;;
37459;SDS011;23318;50.966;5.284;2024-01-30T05:55:21;5.80;;;3.90;;
37459;SDS011;23318;50.966;5.284;2024-01-30T05:57:46;6.60;;;4.57;;
37459;SDS011;23318;50.966;5.284;2024-01-30T06:00:12;8.77;;;4.15;;
37459;SDS011;23318;50.966;5.284;2024-01-30T06:02:38;8.45;;;4.68;;
37459;SDS011;23318;50.966;5.284;2024-01-30T06:05:04;6.53;;;3.95;;
37459;SDS011;23318;50.966;5.284;2024-01-30T06:07:30;8.52;;;4.47;;
37459;SDS011;23318;50.966;5.284;2024-01-30T06:09:55;10.75;;;4.75;;
37459;SDS011;23318;50.966;5.284;2024-01-30T06:12:21;6.90;;;3.70;;
37459;SDS011;23318;50.966;5.284;2024-01-30T06:14:46;9.02;;;4.32;;
37459;SDS011;23318;50.966;5.284;2024-01-30T06:17:12;8.57;;;4.65;;
37459;SDS011;23318;50.966;5.284;2024-01-30T06:19:38;6.28;;;3.67;;
37459;SDS011;23318;50.966;5.284;2024-01-30T06:22:04;7.25;;;4.30;;
37459;SDS011;23318;50.966;5.284;2024-01-30T06:24:30;5.97;;;4.28;;
37459;SDS011;23318;50.966;5.284;2024-01-30T06:26:56;5.85;;;3.95;;
37459;SDS011;23318;50.966;5.284;2024-01-30T06:29:21;7.82;;;3.97;;
37459;SDS011;23318;50.966;5.284;2024-01-30T06:31:49;6.47;;;4.60;;
37459;SDS011;23318;50.966;5.284;2024-01-30T06:34:15;9.55;;;4.10;;
37459;SDS011;23318;50.966;5.284;2024-01-30T06:36:41;11.02;;;4.45;;
37459;SDS011;23318;50.966;5.284;2024-01-30T06:39:07;8.65;;;4.20;;
37459;SDS011;23318;50.966;5.284;2024-01-30T06:41:33;10.88;;;4.85;;
37459;SDS011;23318;50.966;5.284;2024-01-30T06:43:59;10.60;;;4.82;;
37459;SDS011;23318;50.966;5.284;2024-01-30T06:46:24;5.95;;;3.90;;
37459;SDS011;23318;50.966;5.284;2024-01-30T06:48:50;7.18;;;3.85;;
37459;SDS011;23318;50.966;5.284;2024-01-30T06:51:16;11.10;;;3.88;;
37459;SDS011;23318;50.966;5.284;2024-01-30T06:53:41;9.75;;;3.83;;
37459;SDS011;23318;50.966;5.284;2024-01-30T06:56:07;6.57;;;4.50;;
37459;SDS011;23318;50.966;5.284;2024-01-30T06:58:33;7.47;;;3.88;;
37459;SDS011;23318;50.966;5.284;2024-01-30T07:00:59;8.20;;;4.03;;
37459;SDS011;23318;50.966;5.284;2024-01-30T07:03:24;7.63;;;3.90;;
37459;SDS011;23318;50.966;5.284;2024-01-30T07:05:50;8.45;;;4.18;;
37459;SDS011;23318;50.966;5.284;2024-01-30T07:08:16;6.22;;;3.80;;
37459;SDS011;23318;50.966;5.284;2024-01-30T07:10:42;7.63;;;4.22;;
37459;SDS011;23318;50.966;5.284;2024-01-30T07:13:09;8.63;;;4.50;;
37459;SDS011;23318;50.966;5.284;2024-01-30T07:15:37;7.90;;;4.15;;
37459;SDS011;23318;50.966;5.284;2024-01-30T07:18:03;9.65;;;4.38;;
37459;SDS011;23318;50.966;5.284;2024-01-30T07:20:30;6.68;;;3.47;;
37459;SDS011;23318;50.966;5.284;2024-01-30T07:22:57;7.40;;;3.70;;
37459;SDS011;23318;50.966;5.284;2024-01-30T07:25:23;9.70;;;4.32;;
37459;SDS011;23318;50.966;5.284;2024-01-30T07:27:52;9.38;;;4.63;;
37459;SDS011;23318;50.966;5.284;2024-01-30T07:30:20;10.27;;;4.63;;
37459;SDS011;23318;50.966;5.284;2024-01-30T07:32:46;7.47;;;3.70;;
37459;SDS011;23318;50.966;5.284;2024-01-30T07:35:12;6.60;;;3.78;;
37459;SDS011;23318;50.966;5.284;2024-01-30T07:37:38;11.80;;;4.03;;
37459;SDS011;23318;50.966;5.284;2024-01-30T07:40:04;10.25;;;3.75;;
37459;SDS011;23318;50.966;5.284;2024-01-30T07:42:31;10.75;;;3.72;;
37459;SDS011;23318;50.966;5.284;2024-01-30T07:44:57;10.75;;;3.55;;
37459;SDS011;23318;50.966;5.284;2024-01-30T07:47:23;6.97;;;3.90;;
37459;SDS011;23318;50.966;5.284;2024-01-30T07:49:48;7.35;;;3.97;;
37459;SDS011;23318;50.966;5.284;2024-01-30T07:52:14;9.35;;;4.07;;
37459;SDS011;23318;50.966;5.284;2024-01-30T07:54:49;8.45;;;3.80;;
37459;SDS011;23318;50.966;5.284;2024-01-30T07:57:15;10.80;;;3.85;;
37459;SDS011;23318;50.966;5.284;2024-01-30T07:59:42;7.47;;;3.65;;
37459;SDS011;23318;50.966;5.284;2024-01-30T08:02:09;5.63;;;3.55;;
37459;SDS011;23318;50.966;5.284;2024-01-30T08:04:35;8.75;;;4.03;;
37459;SDS011;23318;50.966;5.284;2024-01-30T08:07:01;7.50;;;3.65;;
37459;SDS011;23318;50.966;5.284;2024-01-30T08:09:26;8.30;;;4.53;;
37459;SDS011;23318;50.966;5.284;2024-01-30T08:11:52;6.43;;;3.70;;
37459;SDS011;23318;50.966;5.284;2024-01-30T08:14:18;6.72;;;3.50;;
37459;SDS011;23318;50.966;5.284;2024-01-30T08:16:44;8.38;;;3.92;;
37459;SDS011;23318;50.966;5.284;2024-01-30T08:19:09;7.97;;;4.00;;
37459;SDS011;23318;50.966;5.284;2024-01-30T08:21:35;7.65;;;4.05;;
37459;SDS011;23318;50.966;5.284;2024-01-30T08:24:04;8.00;;;4.28;;
37459;SDS011;23318;50.966;5.284;2024-01-30T08:26:35;12.50;;;4.40;;
37459;SDS011;23318;50.966;5.284;2024-01-30T08:29:01;6.07;;;3.00;;
37459;SDS011;23318;50.966;5.284;2024-01-30T08:31:27;6.15;;;3.60;;
37459;SDS011;23318;50.966;5.284;2024-01-30T08:33:52;9.25;;;4.13;;
37459;SDS011;23318;50.966;5.284;2024-01-30T08:36:18;10.75;;;4.43;;
37459;SDS011;23318;50.966;5.284;2024-01-30T08:38:45;8.43;;;3.70;;
37459;SDS011;23318;50.966;5.284;2024-01-30T08:41:10;7.57;;;3.92;;
37459;SDS011;23318;50.966;5.284;2024-01-30T08:43:36;5.78;;;3.65;;
37459;SDS011;23318;50.966;5.284;2024-01-30T08:46:02;7.55;;;3.75;;
37459;SDS011;23318;50.966;5.284;2024-01-30T08:48:28;7.85;;;3.60;;
37459;SDS011;23318;50.966;5.284;2024-01-30T08:50:54;11.65;;;4.93;;
37459;SDS011;23318;50.966;5.284;2024-01-30T08:53:19;8.95;;;4.18;;
37459;SDS011;23318;50.966;5.284;2024-01-30T08:55:45;7.28;;;3.70;;
37459;SDS011;23318;50.966;5.284;2024-01-30T08:58:11;7.28;;;3.60;;
37459;SDS011;23318;50.966;5.284;2024-01-30T09:00:36;7.03;;;3.67;;
37459;SDS011;23318;50.966;5.284;2024-01-30T09:03:05;12.63;;;4.13;;
37459;SDS011;23318;50.966;5.284;2024-01-30T09:05:31;8.95;;;4.00;;
37459;SDS011;23318;50.966;5.284;2024-01-30T09:07:57;10.75;;;3.92;;
37459;SDS011;23318;50.966;5.284;2024-01-30T09:10:22;6.53;;;4.35;;
37459;SDS011;23318;50.966;5.284;2024-01-30T09:12:48;7.05;;;4.22;;
37459;SDS011;23318;50.966;5.284;2024-01-30T09:15:14;7.82;;;4.07;;
37459;SDS011;23318;50.966;5.284;2024-01-30T09:17:40;7.35;;;4.00;;
37459;SDS011;23318;50.966;5.284;2024-01-30T09:20:06;8.15;;;4.03;;
37459;SDS011;23318;50.966;5.284;2024-01-30T09:22:32;8.20;;;3.88;;
37459;SDS011;23318;50.966;5.284;2024-01-30T09:24:57;11.82;;;4.93;;
37459;SDS011;23318;50.966;5.284;2024-01-30T09:27:23;11.55;;;4.05;;
37459;SDS011;23318;50.966;5.284;2024-01-30T09:29:49;9.10;;;3.80;;
37459;SDS011;23318;50.966;5.284;2024-01-30T09:32:15;6.68;;;3.95;;
37459;SDS011;23318;50.966;5.284;2024-01-30T09:34:40;11.13;;;4.35;;
37459;SDS011;23318;50.966;5.284;2024-01-30T09:37:07;8.27;;;3.90;;
37459;SDS011;23318;50.966;5.284;2024-01-30T09:39:32;10.63;;;4.53;;
37459;SDS011;23318;50.966;5.284;2024-01-30T09:44:45;12.00;;;4.75;;
37459;SDS011;23318;50.966;5.284;2024-01-30T09:47:15;12.32;;;3.75;;
37459;SDS011;23318;50.966;5.284;2024-01-30T09:49:42;10.10;;;3.97;;
37459;SDS011;23318;50.966;5.284;2024-01-30T09:52:09;8.73;;;4.50;;
37459;SDS011;23318;50.966;5.284;2024-01-30T09:54:35;10.00;;;4.15;;
37459;SDS011;23318;50.966;5.284;2024-01-30T09:57:04;11.52;;;4.18;;
37459;SDS011;23318;50.966;5.284;2024-01-30T09:59:30;9.82;;;4.07;;
37459;SDS011;23318;50.966;5.284;2024-01-30T10:01:57;7.75;;;3.45;;
37459;SDS011;23318;50.966;5.284;2024-01-30T10:04:22;8.48;;;3.38;;
37459;SDS011;23318;50.966;5.284;2024-01-30T10:06:48;9.70;;;3.97;;
37459;SDS011;23318;50.966;5.284;2024-01-30T10:09:15;8.73;;;3.95;;
37459;SDS011;23318;50.966;5.284;2024-01-30T10:11:41;10.45;;;4.03;;
37459;SDS011;23318;50.966;5.284;2024-01-30T10:14:07;9.55;;;4.47;;
37459;SDS011;23318;50.966;5.284;2024-01-30T10:16:34;8.13;;;4.07;;
37459;SDS011;23318;50.966;5.284;2024-01-30T10:19:00;13.88;;;4.60;;
37459;SDS011;23318;50.966;5.284;2024-01-30T10:21:25;11.65;;;4.05;;
37459;SDS011;23318;50.966;5.284;2024-01-30T10:23:51;12.18;;;4.20;;
37459;SDS011;23318;50.966;5.284;2024-01-30T10:26:17;13.00;;;4.53;;
37459;SDS011;23318;50.966;5.284;2024-01-30T10:28:42;12.68;;;4.18;;
37459;SDS011;23318;50.966;5.284;2024-01-30T10:31:08;10.27;;;3.40;;
37459;SDS011;23318;50.966;5.284;2024-01-30T10:33:34;9.02;;;4.05;;
37459;SDS011;23318;50.966;5.284;2024-01-30T10:36:00;12.68;;;4.50;;
37459;SDS011;23318;50.966;5.284;2024-01-30T10:38:28;12.27;;;4.43;;
37459;SDS011;23318;50.966;5.284;2024-01-30T10:40:59;11.00;;;4.38;;
37459;SDS011;23318;50.966;5.284;2024-01-30T10:43:32;9.65;;;4.60;;
37459;SDS011;23318;50.966;5.284;2024-01-30T10:46:10;6.50;;;3.92;;
37459;SDS011;23318;50.966;5.284;2024-01-30T10:48:43;12.50;;;5.10;;
37459;SDS011;23318;50.966;5.284;2024-01-30T10:51:14;9.10;;;4.15;;
37459;SDS011;23318;50.966;5.284;2024-01-30T10:53:40;15.73;;;5.32;;
37459;SDS011;23318;50.966;5.284;2024-01-30T10:56:08;14.38;;;5.35;;
37459;SDS011;23318;50.966;5.284;2024-01-30T10:58:36;16.13;;;5.28;;
37459;SDS011;23318;50.966;5.284;2024-01-30T11:01:02;14.10;;;6.00;;
37459;SDS011;23318;50.966;5.284;2024-01-30T11:03:29;10.57;;;5.25;;
37459;SDS011;23318;50.966;5.284;2024-01-30T11:05:58;13.63;;;5.45;;
37459;SDS011;23318;50.966;5.284;2024-01-30T11:08:25;10.68;;;5.20;;
37459;SDS011;23318;50.966;5.284;2024-01-30T11:10:59;11.48;;;5.25;;
37459;SDS011;23318;50.966;5.284;2024-01-30T11:13:28;11.10;;;4.75;;
37459;SDS011;23318;50.966;5.284;2024-01-30T11:15:54;15.30;;;5.18;;
37459;SDS011;23318;50.966;5.284;2024-01-30T11:18:24;13.52;;;5.10;;
37459;SDS011;23318;50.966;5.284;2024-01-30T11:20:50;10.60;;;4.47;;
37459;SDS011;23318;50.966;5.284;2024-01-30T11:23:16;15.68;;;4.93;;
37459;SDS011;23318;50.966;5.284;2024-01-30T11:25:43;12.27;;;5.63;;
37459;SDS011;23318;50.966;5.284;2024-01-30T11:28:13;12.55;;;5.18;;
37459;SDS011;23318;50.966;5.284;2024-01-30T11:30:43;10.27;;;4.57;;
37459;SDS011;23318;50.966;5.284;2024-01-30T11:33:13;8.35;;;4.22;;
37459;SDS011;23318;50.966;5.284;2024-01-30T11:35:43;9.35;;;4.53;;
37459;SDS011;23318;50.966;5.284;2024-01-30T11:38:13;13.95;;;5.00;;
37459;SDS011;23318;50.966;5.284;2024-01-30T11:40:39;12.90;;;5.03;;
37459;SDS011;23318;50.966;5.284;2024-01-30T11:43:06;10.32;;;5.40;;
37459;SDS011;23318;50.966;5.284;2024-01-30T11:45:33;16.33;;;5.80;;
37459;SDS011;23318;50.966;5.284;2024-01-30T11:48:00;9.70;;;4.22;;
37459;SDS011;23318;50.966;5.284;2024-01-30T11:50:29;10.95;;;5.93;;
37459;SDS011;23318;50.966;5.284;2024-01-30T11:52:55;11.07;;;5.07;;
37459;SDS011;23318;50.966;5.284;2024-01-30T11:55:24;14.25;;;6.07;;
37459;SDS011;23318;50.966;5.284;2024-01-30T11:57:49;8.68;;;5.13;;
37459;SDS011;23318;50.966;5.284;2024-01-30T12:03:00;11.48;;;5.65;;
37459;SDS011;23318;50.966;5.284;2024-01-30T12:05:27;13.13;;;5.63;;
37459;SDS011;23318;50.966;5.284;2024-01-30T12:07:53;13.43;;;5.35;;
37459;SDS011;23318;50.966;5.284;2024-01-30T12:10:19;10.43;;;5.93;;
37459;SDS011;23318;50.966;5.284;2024-01-30T12:12:48;10.75;;;5.43;;
37459;SDS011;23318;50.966;5.284;2024-01-30T12:15:15;10.52;;;5.85;;
37459;SDS011;23318;50.966;5.284;2024-01-30T12:17:41;14.10;;;6.45;;
37459;SDS011;23318;50.966;5.284;2024-01-30T12:20:11;12.65;;;5.00;;
37459;SDS011;23318;50.966;5.284;2024-01-30T12:22:38;15.20;;;6.10;;
37459;SDS011;23318;50.966;5.284;2024-01-30T12:25:12;11.07;;;5.70;;
37459;SDS011;23318;50.966;5.284;2024-01-30T12:27:38;14.85;;;6.82;;
37459;SDS011;23318;50.966;5.284;2024-01-30T12:30:08;8.00;;;4.53;;
37459;SDS011;23318;50.966;5.284;2024-01-30T12:32:41;14.93;;;5.95;;
37459;SDS011;23318;50.966;5.284;2024-01-30T12:35:11;13.70;;;4.68;;
37459;SDS011;23318;50.966;5.284;2024-01-30T12:37:38;8.45;;;4.13;;
37459;SDS011;23318;50.966;5.284;2024-01-30T12:40:04;8.93;;;4.80;;
37459;SDS011;23318;50.966;5.284;2024-01-30T12:42:32;9.75;;;2.85;;
37459;SDS011;23318;50.966;5.284;2024-01-30T12:44:58;9.43;;;3.13;;
37459;SDS011;23318;50.966;5.284;2024-01-30T12:47:24;5.38;;;2.75;;
37459;SDS011;23318;50.966;5.284;2024-01-30T12:49:50;10.10;;;2.95;;
37459;SDS011;23318;50.966;5.284;2024-01-30T12:52:19;7.50;;;3.03;;
37459;SDS011;23318;50.966;5.284;2024-01-30T12:54:46;11.88;;;2.80;;
37459;SDS011;23318;50.966;5.284;2024-01-30T12:57:12;5.07;;;2.17;;
37459;SDS011;23318;50.966;5.284;2024-01-30T12:59:38;7.35;;;2.22;;
37459;SDS011;23318;50.966;5.284;2024-01-30T13:02:04;8.77;;;2.05;;
37459;SDS011;23318;50.966;5.284;2024-01-30T13:04:31;5.55;;;2.22;;
37459;SDS011;23318;50.966;5.284;2024-01-30T13:06:57;9.07;;;2.33;;
37459;SDS011;23318;50.966;5.284;2024-01-30T13:09:23;9.75;;;2.47;;
37459;SDS011;23318;50.966;5.284;2024-01-30T13:11:49;9.95;;;2.05;;
37459;SDS011;23318;50.966;5.284;2024-01-30T13:14:16;4.45;;;1.67;;
37459;SDS011;23318;50.966;5.284;2024-01-30T13:16:42;3.15;;;1.58;;
37459;SDS011;23318;50.966;5.284;2024-01-30T13:19:08;2.70;;;1.02;;
37459;SDS011;23318;50.966;5.284;2024-01-30T13:21:34;4.38;;;1.23;;
37459;SDS011;23318;50.966;5.284;2024-01-30T13:23:59;4.32;;;1.23;;
37459;SDS011;23318;50.966;5.284;2024-01-30T13:26:25;2.47;;;1.00;;
37459;SDS011;23318;50.966;5.284;2024-01-30T13:28:51;2.67;;;1.00;;
37459;SDS011;23318;50.966;5.284;2024-01-30T13:31:16;4.35;;;1.10;;
37459;SDS011;23318;50.966;5.284;2024-01-30T13:33:42;1.25;;;0.70;;
37459;SDS011;23318;50.966;5.284;2024-01-30T13:36:09;5.10;;;0.70;;
37459;SDS011;23318;50.966;5.284;2024-01-30T13:38:36;2.72;;;1.48;;
37459;SDS011;23318;50.966;5.284;2024-01-30T13:41:01;7.70;;;0.50;;
37459;SDS011;23318;50.966;5.284;2024-01-30T13:43:27;0.43;;;0.28;;
37459;SDS011;23318;50.966;5.284;2024-01-30T13:45:53;2.35;;;0.47;;
37459;SDS011;23318;50.966;5.284;2024-01-30T13:48:19;0.35;;;0.20;;
37459;SDS011;23318;50.966;5.284;2024-01-30T13:50:45;1.13;;;0.35;;
37459;SDS011;23318;50.966;5.284;2024-01-30T13:53:11;2.95;;;0.28;;
37459;SDS011;23318;50.966;5.284;2024-01-30T13:55:37;1.38;;;0.32;;
37459;SDS011;23318;50.966;5.284;2024-01-30T13:58:04;0.60;;;0.13;;
37459;SDS011;23318;50.966;5.284;2024-01-30T14:00:30;0.90;;;0.30;;
37459;SDS011;23318;50.966;5.284;2024-01-30T14:02:56;0.20;;;0.10;;
37459;SDS011;23318;50.966;5.284;2024-01-30T14:05:23;0.73;;;0.15;;
37459;SDS011;23318;50.966;5.284;2024-01-30T14:07:49;1.10;;;0.10;;
37459;SDS011;23318;50.966;5.284;2024-01-30T14:10:16;1.23;;;0.20;;
37459;SDS011;23318;50.966;5.284;2024-01-30T14:12:42;2.47;;;0.30;;
37459;SDS011;23318;50.966;5.284;2024-01-30T14:15:13;1.00;;;0.20;;
37459;SDS011;23318;50.966;5.284;2024-01-30T14:17:46;1.20;;;0.30;;
37459;SDS011;23318;50.966;5.284;2024-01-30T14:20:13;2.95;;;0.30;;
37459;SDS011;23318;50.966;5.284;2024-01-30T14:22:41;0.93;;;0.20;;
37459;SDS011;23318;50.966;5.284;2024-01-30T14:25:07;2.30;;;0.95;;
37459;SDS011;23318;50.966;5.284;2024-01-30T14:27:34;1.45;;;0.68;;
37459;SDS011;23318;50.966;5.284;2024-01-30T14:30:00;3.55;;;0.73;;
37459;SDS011;23318;50.966;5.284;2024-01-30T14:32:25;1.55;;;0.20;;
37459;SDS011;23318;50.966;5.284;2024-01-30T14:34:51;2.40;;;0.30;;
37459;SDS011;23318;50.966;5.284;2024-01-30T14:37:20;0.20;;;0.20;;
37459;SDS011;23318;50.966;5.284;2024-01-30T14:39:46;3.00;;;0.73;;
37459;SDS011;23318;50.966;5.284;2024-01-30T14:42:13;1.27;;;0.22;;
37459;SDS011;23318;50.966;5.284;2024-01-30T14:44:39;1.65;;;0.20;;